sensor_id;sensor_type;location;lat;lon;timestamp;P1;durP1;ratioP1;P2;durP2;ratioP2
67344;SDS011;54230;52.402;6.276;2022-08-23T00:00:00;14.1;;;6.2;;
67344;SDS011;54230;52.402;6.276;2022-08-23T00:05:00;12.0;;;6.5;;
67344;SDS011;54230;52.402;6.276;2022-08-23T00:10:00;14.3;;;6.9;;
67344;SDS011;54230;52.402;6.276;2022-08-23T00:15:00;13.2;;;7.0;;
67344;SDS011;54230;52.402;6.276;2022-08-23T00:20:00;13.2;;;7.3;;
67344;SDS011;54230;52.402;6.276;2022-08-23T00:25:00;11.4;;;7.3;;
67344;SDS011;54230;52.402;6.276;2022-08-23T00:30:00;11.4;;;7.4;;
67344;SDS011;54230;52.402;6.276;2022-08-23T00:35:00;12.4;;;7.0;;
67344;SDS011;54230;52.402;6.276;2022-08-23T00:40:00;13.2;;;7.7;;
67344;SDS011;54230;52.402;6.276;2022-08-23T00:45:00;14.2;;;8.1;;
67344;SDS011;54230;52.402;6.276;2022-08-23T00:50:02;14.9;;;8.3;;
67344;SDS011;54230;52.402;6.276;2022-08-23T00:55:00;14.6;;;8.7;;
67344;SDS011;54230;52.402;6.276;2022-08-23T01:00:00;15.1;;;8.8;;
67344;SDS011;54230;52.402;6.276;2022-08-23T01:05:00;15.3;;;8.9;;
67344;SDS011;54230;52.402;6.276;2022-08-23T01:10:01;15.0;;;8.8;;
67344;SDS011;54230;52.402;6.276;2022-08-23T01:15:01;14.1;;;9.1;;
67344;SDS011;54230;52.402;6.276;2022-08-23T01:20:00;14.0;;;8.8;;
67344;SDS011;54230;52.402;6.276;2022-08-23T01:25:00;16.7;;;9.5;;
67344;SDS011;54230;52.402;6.276;2022-08-23T01:30:00;16.3;;;10.3;;
67344;SDS011;54230;52.402;6.276;2022-08-23T01:35:00;18.1;;;10.7;;
67344;SDS011;54230;52.402;6.276;2022-08-23T01:40:00;18.3;;;10.5;;
67344;SDS011;54230;52.402;6.276;2022-08-23T01:45:00;16.5;;;10.7;;
67344;SDS011;54230;52.402;6.276;2022-08-23T01:50:00;18.1;;;10.5;;
67344;SDS011;54230;52.402;6.276;2022-08-23T01:55:00;19.1;;;10.2;;
67344;SDS011;54230;52.402;6.276;2022-08-23T02:00:00;17.4;;;10.8;;
67344;SDS011;54230;52.402;6.276;2022-08-23T02:05:00;18.0;;;11.2;;
67344;SDS011;54230;52.402;6.276;2022-08-23T02:10:00;21.2;;;11.4;;
67344;SDS011;54230;52.402;6.276;2022-08-23T02:15:00;18.4;;;11.3;;
67344;SDS011;54230;52.402;6.276;2022-08-23T02:20:00;16.2;;;11.1;;
67344;SDS011;54230;52.402;6.276;2022-08-23T02:25:00;18.1;;;11.2;;
67344;SDS011;54230;52.402;6.276;2022-08-23T02:30:00;21.7;;;11.6;;
67344;SDS011;54230;52.402;6.276;2022-08-23T02:35:00;19.2;;;12.1;;
67344;SDS011;54230;52.402;6.276;2022-08-23T02:40:00;19.5;;;12.1;;
67344;SDS011;54230;52.402;6.276;2022-08-23T02:45:00;20.3;;;12.9;;
67344;SDS011;54230;52.402;6.276;2022-08-23T02:50:00;19.0;;;12.6;;
67344;SDS011;54230;52.402;6.276;2022-08-23T02:55:00;18.5;;;12.3;;
67344;SDS011;54230;52.402;6.276;2022-08-23T03:00:00;18.6;;;12.5;;
67344;SDS011;54230;52.402;6.276;2022-08-23T03:05:00;19.0;;;12.7;;
67344;SDS011;54230;52.402;6.276;2022-08-23T03:10:00;18.7;;;12.1;;
67344;SDS011;54230;52.402;6.276;2022-08-23T03:15:00;18.3;;;12.8;;
67344;SDS011;54230;52.402;6.276;2022-08-23T03:20:00;20.2;;;12.6;;
67344;SDS011;54230;52.402;6.276;2022-08-23T03:25:00;18.9;;;12.6;;
67344;SDS011;54230;52.402;6.276;2022-08-23T03:30:00;19.3;;;13.0;;
67344;SDS011;54230;52.402;6.276;2022-08-23T03:35:00;24.0;;;13.4;;
67344;SDS011;54230;52.402;6.276;2022-08-23T03:40:00;20.9;;;13.4;;
67344;SDS011;54230;52.402;6.276;2022-08-23T03:45:00;20.8;;;13.1;;
67344;SDS011;54230;52.402;6.276;2022-08-23T03:50:00;19.2;;;12.5;;
67344;SDS011;54230;52.402;6.276;2022-08-23T03:55:00;20.0;;;12.7;;
67344;SDS011;54230;52.402;6.276;2022-08-23T04:00:00;19.7;;;12.7;;
67344;SDS011;54230;52.402;6.276;2022-08-23T04:05:00;19.0;;;12.7;;
67344;SDS011;54230;52.402;6.276;2022-08-23T04:10:00;21.3;;;13.7;;
67344;SDS011;54230;52.402;6.276;2022-08-23T04:15:00;20.4;;;13.1;;
67344;SDS011;54230;52.402;6.276;2022-08-23T04:20:00;19.8;;;13.9;;
67344;SDS011;54230;52.402;6.276;2022-08-23T04:25:00;20.8;;;13.5;;
67344;SDS011;54230;52.402;6.276;2022-08-23T04:30:00;17.9;;;13.1;;
67344;SDS011;54230;52.402;6.276;2022-08-23T04:35:00;20.7;;;12.7;;
67344;SDS011;54230;52.402;6.276;2022-08-23T04:40:00;20.0;;;12.5;;
67344;SDS011;54230;52.402;6.276;2022-08-23T04:45:00;18.2;;;12.8;;
67344;SDS011;54230;52.402;6.276;2022-08-23T04:50:00;18.3;;;12.9;;
67344;SDS011;54230;52.402;6.276;2022-08-23T04:55:00;17.7;;;12.4;;
67344;SDS011;54230;52.402;6.276;2022-08-23T05:00:00;19.2;;;13.8;;
67344;SDS011;54230;52.402;6.276;2022-08-23T05:05:00;21.9;;;13.9;;
67344;SDS011;54230;52.402;6.276;2022-08-23T05:10:00;22.2;;;13.9;;
67344;SDS011;54230;52.402;6.276;2022-08-23T05:15:00;21.6;;;14.1;;
67344;SDS011;54230;52.402;6.276;2022-08-23T05:20:00;20.9;;;14.7;;
67344;SDS011;54230;52.402;6.276;2022-08-23T05:25:00;21.5;;;14.9;;
67344;SDS011;54230;52.402;6.276;2022-08-23T05:30:00;19.4;;;14.1;;
67344;SDS011;54230;52.402;6.276;2022-08-23T05:35:00;19.0;;;14.2;;
67344;SDS011;54230;52.402;6.276;2022-08-23T05:40:00;19.1;;;13.3;;
67344;SDS011;54230;52.402;6.276;2022-08-23T05:45:00;22.3;;;13.0;;
67344;SDS011;54230;52.402;6.276;2022-08-23T05:50:00;18.4;;;12.9;;
67344;SDS011;54230;52.402;6.276;2022-08-23T05:55:00;15.7;;;12.3;;
67344;SDS011;54230;52.402;6.276;2022-08-23T06:00:00;17.9;;;11.2;;
67344;SDS011;54230;52.402;6.276;2022-08-23T06:05:00;16.4;;;11.9;;
67344;SDS011;54230;52.402;6.276;2022-08-23T06:10:00;16.0;;;11.3;;
67344;SDS011;54230;52.402;6.276;2022-08-23T06:15:00;17.8;;;11.0;;
67344;SDS011;54230;52.402;6.276;2022-08-23T06:20:00;17.8;;;10.8;;
67344;SDS011;54230;52.402;6.276;2022-08-23T06:25:00;13.2;;;10.2;;
67344;SDS011;54230;52.402;6.276;2022-08-23T06:30:00;15.3;;;10.4;;
67344;SDS011;54230;52.402;6.276;2022-08-23T06:35:00;15.4;;;10.5;;
67344;SDS011;54230;52.402;6.276;2022-08-23T06:40:00;16.6;;;9.7;;
67344;SDS011;54230;52.402;6.276;2022-08-23T06:45:00;15.2;;;10.0;;
67344;SDS011;54230;52.402;6.276;2022-08-23T06:50:00;17.4;;;10.3;;
67344;SDS011;54230;52.402;6.276;2022-08-23T06:55:00;16.4;;;10.4;;
67344;SDS011;54230;52.402;6.276;2022-08-23T07:00:00;16.7;;;10.5;;
67344;SDS011;54230;52.402;6.276;2022-08-23T07:05:00;18.5;;;11.0;;
67344;SDS011;54230;52.402;6.276;2022-08-23T07:10:00;17.5;;;10.8;;
67344;SDS011;54230;52.402;6.276;2022-08-23T07:15:00;17.4;;;11.0;;
67344;SDS011;54230;52.402;6.276;2022-08-23T07:20:00;13.5;;;9.6;;
67344;SDS011;54230;52.402;6.276;2022-08-23T07:25:00;16.9;;;10.6;;
67344;SDS011;54230;52.402;6.276;2022-08-23T07:30:00;16.9;;;11.4;;
67344;SDS011;54230;52.402;6.276;2022-08-23T07:35:00;15.6;;;11.4;;
67344;SDS011;54230;52.402;6.276;2022-08-23T07:40:00;16.2;;;11.3;;
67344;SDS011;54230;52.402;6.276;2022-08-23T07:45:00;17.0;;;11.3;;
67344;SDS011;54230;52.402;6.276;2022-08-23T07:50:00;21.0;;;11.7;;
67344;SDS011;54230;52.402;6.276;2022-08-23T07:55:00;15.9;;;11.1;;
67344;SDS011;54230;52.402;6.276;2022-08-23T08:00:00;16.1;;;11.4;;
67344;SDS011;54230;52.402;6.276;2022-08-23T08:05:00;15.5;;;11.3;;
67344;SDS011;54230;52.402;6.276;2022-08-23T08:10:00;20.4;;;11.3;;
67344;SDS011;54230;52.402;6.276;2022-08-23T08:15:00;16.5;;;10.9;;
67344;SDS011;54230;52.402;6.276;2022-08-23T08:20:00;16.8;;;10.6;;
67344;SDS011;54230;52.402;6.276;2022-08-23T08:25:00;15.6;;;10.3;;
67344;SDS011;54230;52.402;6.276;2022-08-23T08:30:00;16.5;;;10.2;;
67344;SDS011;54230;52.402;6.276;2022-08-23T08:35:00;16.5;;;10.5;;
67344;SDS011;54230;52.402;6.276;2022-08-23T08:40:00;15.5;;;9.9;;
67344;SDS011;54230;52.402;6.276;2022-08-23T08:45:02;14.2;;;9.6;;
67344;SDS011;54230;52.402;6.276;2022-08-23T08:50:02;15.4;;;9.5;;
67344;SDS011;54230;52.402;6.276;2022-08-23T08:55:02;17.3;;;9.9;;
67344;SDS011;54230;52.402;6.276;2022-08-23T09:00:00;18.1;;;8.4;;
67344;SDS011;54230;52.402;6.276;2022-08-23T09:05:00;14.0;;;9.0;;
67344;SDS011;54230;52.402;6.276;2022-08-23T09:10:04;15.3;;;8.6;;
67344;SDS011;54230;52.402;6.276;2022-08-23T09:15:04;15.4;;;8.5;;
67344;SDS011;54230;52.402;6.276;2022-08-23T09:20:01;19.0;;;9.6;;
67344;SDS011;54230;52.402;6.276;2022-08-23T09:25:00;15.5;;;8.9;;
67344;SDS011;54230;52.402;6.276;2022-08-23T09:30:00;13.7;;;8.5;;
67344;SDS011;54230;52.402;6.276;2022-08-23T09:35:08;15.0;;;6.8;;
67344;SDS011;54230;52.402;6.276;2022-08-23T09:45:00;11.7;;;7.0;;
67344;SDS011;54230;52.402;6.276;2022-08-23T09:50:06;11.2;;;6.6;;
67344;SDS011;54230;52.402;6.276;2022-08-23T09:55:00;12.0;;;5.9;;
67344;SDS011;54230;52.402;6.276;2022-08-23T10:00:00;12.3;;;6.1;;
67344;SDS011;54230;52.402;6.276;2022-08-23T10:05:00;11.0;;;5.6;;
67344;SDS011;54230;52.402;6.276;2022-08-23T10:15:00;9.0;;;4.6;;
67344;SDS011;54230;52.402;6.276;2022-08-23T10:20:03;10.0;;;4.9;;
67344;SDS011;54230;52.402;6.276;2022-08-23T10:25:02;10.8;;;4.6;;
67344;SDS011;54230;52.402;6.276;2022-08-23T10:30:02;10.6;;;4.8;;
67344;SDS011;54230;52.402;6.276;2022-08-23T10:35:02;7.0;;;4.6;;
67344;SDS011;54230;52.402;6.276;2022-08-23T10:40:03;7.9;;;3.9;;
67344;SDS011;54230;52.402;6.276;2022-08-23T10:45:02;9.7;;;4.1;;
67344;SDS011;54230;52.402;6.276;2022-08-23T10:50:03;12.0;;;4.7;;
67344;SDS011;54230;52.402;6.276;2022-08-23T10:55:00;10.9;;;4.2;;
67344;SDS011;54230;52.402;6.276;2022-08-23T11:00:00;7.9;;;3.7;;
67344;SDS011;54230;52.402;6.276;2022-08-23T11:05:01;8.0;;;3.5;;
67344;SDS011;54230;52.402;6.276;2022-08-23T11:10:08;10.8;;;3.8;;
67344;SDS011;54230;52.402;6.276;2022-08-23T11:20:01;7.8;;;3.4;;
67344;SDS011;54230;52.402;6.276;2022-08-23T11:25:00;13.7;;;4.3;;
67344;SDS011;54230;52.402;6.276;2022-08-23T11:35:02;7.9;;;3.6;;
67344;SDS011;54230;52.402;6.276;2022-08-23T11:40:01;10.6;;;3.6;;
67344;SDS011;54230;52.402;6.276;2022-08-23T11:45:00;8.6;;;3.6;;
67344;SDS011;54230;52.402;6.276;2022-08-23T11:55:06;8.4;;;4.0;;
67344;SDS011;54230;52.402;6.276;2022-08-23T12:00:02;10.4;;;4.2;;
67344;SDS011;54230;52.402;6.276;2022-08-23T12:05:00;11.0;;;3.9;;
67344;SDS011;54230;52.402;6.276;2022-08-23T12:10:00;8.6;;;3.5;;
67344;SDS011;54230;52.402;6.276;2022-08-23T12:15:00;8.8;;;3.9;;
67344;SDS011;54230;52.402;6.276;2022-08-23T12:20:09;9.4;;;3.8;;
67344;SDS011;54230;52.402;6.276;2022-08-23T12:25:01;6.9;;;3.0;;
67344;SDS011;54230;52.402;6.276;2022-08-23T12:30:01;7.5;;;3.4;;
67344;SDS011;54230;52.402;6.276;2022-08-23T12:35:05;6.3;;;3.3;;
67344;SDS011;54230;52.402;6.276;2022-08-23T12:40:00;8.7;;;3.5;;
67344;SDS011;54230;52.402;6.276;2022-08-23T12:45:02;6.7;;;3.2;;
67344;SDS011;54230;52.402;6.276;2022-08-23T12:50:00;10.6;;;3.4;;
67344;SDS011;54230;52.402;6.276;2022-08-23T12:55:00;9.8;;;3.8;;
67344;SDS011;54230;52.402;6.276;2022-08-23T13:00:06;7.7;;;3.6;;
67344;SDS011;54230;52.402;6.276;2022-08-23T13:05:01;8.7;;;3.6;;
67344;SDS011;54230;52.402;6.276;2022-08-23T13:10:00;8.0;;;3.8;;
67344;SDS011;54230;52.402;6.276;2022-08-23T13:15:00;8.3;;;3.4;;
67344;SDS011;54230;52.402;6.276;2022-08-23T13:25:02;9.5;;;4.1;;
67344;SDS011;54230;52.402;6.276;2022-08-23T13:30:00;7.4;;;4.0;;
67344;SDS011;54230;52.402;6.276;2022-08-23T13:40:08;11.0;;;4.6;;
67344;SDS011;54230;52.402;6.276;2022-08-23T13:45:08;9.2;;;4.2;;
67344;SDS011;54230;52.402;6.276;2022-08-23T13:50:00;9.1;;;4.3;;
67344;SDS011;54230;52.402;6.276;2022-08-23T13:55:00;10.3;;;4.4;;
67344;SDS011;54230;52.402;6.276;2022-08-23T14:00:00;8.7;;;4.6;;
67344;SDS011;54230;52.402;6.276;2022-08-23T14:05:00;8.4;;;4.0;;
67344;SDS011;54230;52.402;6.276;2022-08-23T14:10:00;8.4;;;4.3;;
67344;SDS011;54230;52.402;6.276;2022-08-23T14:15:00;10.8;;;4.3;;
67344;SDS011;54230;52.402;6.276;2022-08-23T14:20:00;8.1;;;4.0;;
67344;SDS011;54230;52.402;6.276;2022-08-23T14:25:00;8.2;;;4.3;;
67344;SDS011;54230;52.402;6.276;2022-08-23T14:30:00;10.0;;;3.9;;
67344;SDS011;54230;52.402;6.276;2022-08-23T14:35:00;8.5;;;3.9;;
67344;SDS011;54230;52.402;6.276;2022-08-23T14:40:00;8.3;;;4.1;;
67344;SDS011;54230;52.402;6.276;2022-08-23T14:45:00;8.2;;;3.8;;
67344;SDS011;54230;52.402;6.276;2022-08-23T14:50:00;8.3;;;3.9;;
67344;SDS011;54230;52.402;6.276;2022-08-23T14:55:00;7.1;;;4.1;;
67344;SDS011;54230;52.402;6.276;2022-08-23T15:00:00;7.8;;;4.0;;
67344;SDS011;54230;52.402;6.276;2022-08-23T15:05:00;9.0;;;3.9;;
67344;SDS011;54230;52.402;6.276;2022-08-23T15:10:00;6.1;;;3.4;;
67344;SDS011;54230;52.402;6.276;2022-08-23T15:15:00;7.6;;;3.3;;
67344;SDS011;54230;52.402;6.276;2022-08-23T15:20:00;7.8;;;3.3;;
67344;SDS011;54230;52.402;6.276;2022-08-23T15:25:00;9.6;;;3.3;;
67344;SDS011;54230;52.402;6.276;2022-08-23T15:30:00;12.2;;;3.2;;
67344;SDS011;54230;52.402;6.276;2022-08-23T15:35:00;6.4;;;2.9;;
67344;SDS011;54230;52.402;6.276;2022-08-23T15:40:00;6.9;;;2.9;;
67344;SDS011;54230;52.402;6.276;2022-08-23T15:45:00;9.6;;;3.3;;
67344;SDS011;54230;52.402;6.276;2022-08-23T15:50:00;8.2;;;2.9;;
67344;SDS011;54230;52.402;6.276;2022-08-23T15:55:00;5.5;;;2.7;;
67344;SDS011;54230;52.402;6.276;2022-08-23T16:00:00;7.5;;;3.0;;
67344;SDS011;54230;52.402;6.276;2022-08-23T16:05:00;7.0;;;2.8;;
67344;SDS011;54230;52.402;6.276;2022-08-23T16:10:00;7.3;;;2.5;;
67344;SDS011;54230;52.402;6.276;2022-08-23T16:15:00;5.8;;;2.5;;
67344;SDS011;54230;52.402;6.276;2022-08-23T16:20:00;7.1;;;2.7;;
67344;SDS011;54230;52.402;6.276;2022-08-23T16:25:00;5.4;;;2.7;;
67344;SDS011;54230;52.402;6.276;2022-08-23T16:30:00;6.3;;;2.6;;
67344;SDS011;54230;52.402;6.276;2022-08-23T16:35:00;6.9;;;2.6;;
67344;SDS011;54230;52.402;6.276;2022-08-23T16:40:00;6.2;;;2.7;;
67344;SDS011;54230;52.402;6.276;2022-08-23T16:45:00;6.4;;;2.4;;
67344;SDS011;54230;52.402;6.276;2022-08-23T16:50:00;6.9;;;2.4;;
67344;SDS011;54230;52.402;6.276;2022-08-23T16:55:00;6.7;;;2.8;;
67344;SDS011;54230;52.402;6.276;2022-08-23T17:00:00;5.4;;;2.7;;
67344;SDS011;54230;52.402;6.276;2022-08-23T17:05:00;6.0;;;2.7;;
67344;SDS011;54230;52.402;6.276;2022-08-23T17:10:00;8.5;;;3.1;;
67344;SDS011;54230;52.402;6.276;2022-08-23T17:15:00;7.6;;;2.8;;
67344;SDS011;54230;52.402;6.276;2022-08-23T17:20:00;7.2;;;2.7;;
67344;SDS011;54230;52.402;6.276;2022-08-23T17:25:00;7.8;;;2.9;;
67344;SDS011;54230;52.402;6.276;2022-08-23T17:30:00;8.7;;;2.9;;
67344;SDS011;54230;52.402;6.276;2022-08-23T17:35:00;7.7;;;3.1;;
67344;SDS011;54230;52.402;6.276;2022-08-23T17:40:00;9.6;;;3.4;;
67344;SDS011;54230;52.402;6.276;2022-08-23T17:45:00;11.0;;;3.3;;
67344;SDS011;54230;52.402;6.276;2022-08-23T17:50:00;6.8;;;3.2;;
67344;SDS011;54230;52.402;6.276;2022-08-23T17:55:00;9.3;;;3.5;;
67344;SDS011;54230;52.402;6.276;2022-08-23T18:00:00;9.6;;;3.6;;
67344;SDS011;54230;52.402;6.276;2022-08-23T18:05:00;11.0;;;3.6;;
67344;SDS011;54230;52.402;6.276;2022-08-23T18:10:00;8.6;;;3.4;;
67344;SDS011;54230;52.402;6.276;2022-08-23T18:15:00;9.9;;;4.1;;
67344;SDS011;54230;52.402;6.276;2022-08-23T18:20:00;10.1;;;3.4;;
67344;SDS011;54230;52.402;6.276;2022-08-23T18:25:00;8.4;;;3.2;;
67344;SDS011;54230;52.402;6.276;2022-08-23T18:30:00;8.7;;;3.2;;
67344;SDS011;54230;52.402;6.276;2022-08-23T18:35:00;11.7;;;3.6;;
67344;SDS011;54230;52.402;6.276;2022-08-23T18:40:00;9.8;;;3.7;;
67344;SDS011;54230;52.402;6.276;2022-08-23T18:45:00;10.2;;;3.6;;
67344;SDS011;54230;52.402;6.276;2022-08-23T18:50:00;8.5;;;4.1;;
67344;SDS011;54230;52.402;6.276;2022-08-23T18:55:00;12.2;;;4.9;;
67344;SDS011;54230;52.402;6.276;2022-08-23T19:00:00;10.7;;;4.8;;
67344;SDS011;54230;52.402;6.276;2022-08-23T19:05:00;12.2;;;5.0;;
67344;SDS011;54230;52.402;6.276;2022-08-23T19:10:00;11.3;;;4.8;;
67344;SDS011;54230;52.402;6.276;2022-08-23T19:15:00;11.6;;;4.6;;
67344;SDS011;54230;52.402;6.276;2022-08-23T19:20:00;12.2;;;4.9;;
67344;SDS011;54230;52.402;6.276;2022-08-23T19:25:00;11.9;;;5.1;;
67344;SDS011;54230;52.402;6.276;2022-08-23T19:30:00;11.5;;;4.8;;
67344;SDS011;54230;52.402;6.276;2022-08-23T19:35:00;10.8;;;5.0;;
67344;SDS011;54230;52.402;6.276;2022-08-23T19:40:00;8.9;;;5.1;;
67344;SDS011;54230;52.402;6.276;2022-08-23T19:45:00;9.2;;;4.8;;
67344;SDS011;54230;52.402;6.276;2022-08-23T19:50:00;11.5;;;5.3;;
67344;SDS011;54230;52.402;6.276;2022-08-23T19:55:00;13.9;;;5.3;;
67344;SDS011;54230;52.402;6.276;2022-08-23T20:00:00;9.2;;;5.1;;
67344;SDS011;54230;52.402;6.276;2022-08-23T20:05:00;10.5;;;5.2;;
67344;SDS011;54230;52.402;6.276;2022-08-23T20:10:00;11.5;;;5.3;;
67344;SDS011;54230;52.402;6.276;2022-08-23T20:15:00;11.7;;;6.1;;
67344;SDS011;54230;52.402;6.276;2022-08-23T20:20:00;10.1;;;5.8;;
67344;SDS011;54230;52.402;6.276;2022-08-23T20:25:00;11.8;;;6.0;;
67344;SDS011;54230;52.402;6.276;2022-08-23T20:30:00;10.4;;;6.0;;
67344;SDS011;54230;52.402;6.276;2022-08-23T20:35:00;11.8;;;6.6;;
67344;SDS011;54230;52.402;6.276;2022-08-23T20:40:00;12.0;;;6.6;;
67344;SDS011;54230;52.402;6.276;2022-08-23T20:45:00;14.0;;;7.2;;
67344;SDS011;54230;52.402;6.276;2022-08-23T20:50:00;15.3;;;7.0;;
67344;SDS011;54230;52.402;6.276;2022-08-23T20:55:00;13.5;;;7.9;;
67344;SDS011;54230;52.402;6.276;2022-08-23T21:00:00;13.8;;;7.9;;
67344;SDS011;54230;52.402;6.276;2022-08-23T21:05:00;11.7;;;7.8;;
67344;SDS011;54230;52.402;6.276;2022-08-23T21:10:00;12.1;;;7.2;;
67344;SDS011;54230;52.402;6.276;2022-08-23T21:15:00;12.2;;;7.4;;
67344;SDS011;54230;52.402;6.276;2022-08-23T21:20:00;15.6;;;7.3;;
67344;SDS011;54230;52.402;6.276;2022-08-23T21:25:00;12.4;;;7.4;;
67344;SDS011;54230;52.402;6.276;2022-08-23T21:30:00;14.5;;;8.0;;
67344;SDS011;54230;52.402;6.276;2022-08-23T21:35:00;14.8;;;8.4;;
67344;SDS011;54230;52.402;6.276;2022-08-23T21:40:00;13.3;;;8.7;;
67344;SDS011;54230;52.402;6.276;2022-08-23T21:45:00;14.4;;;8.5;;
67344;SDS011;54230;52.402;6.276;2022-08-23T21:50:00;16.6;;;8.9;;
67344;SDS011;54230;52.402;6.276;2022-08-23T21:55:00;15.5;;;8.5;;
67344;SDS011;54230;52.402;6.276;2022-08-23T22:00:00;16.8;;;9.3;;
67344;SDS011;54230;52.402;6.276;2022-08-23T22:05:00;15.2;;;9.6;;
67344;SDS011;54230;52.402;6.276;2022-08-23T22:10:00;15.4;;;9.9;;
67344;SDS011;54230;52.402;6.276;2022-08-23T22:15:00;20.4;;;10.4;;
67344;SDS011;54230;52.402;6.276;2022-08-23T22:20:00;17.6;;;11.3;;
67344;SDS011;54230;52.402;6.276;2022-08-23T22:25:00;19.5;;;12.1;;
67344;SDS011;54230;52.402;6.276;2022-08-23T22:30:00;17.0;;;12.0;;
67344;SDS011;54230;52.402;6.276;2022-08-23T22:35:00;20.1;;;12.6;;
67344;SDS011;54230;52.402;6.276;2022-08-23T22:40:00;16.9;;;12.3;;
67344;SDS011;54230;52.402;6.276;2022-08-23T22:45:00;19.7;;;12.6;;
67344;SDS011;54230;52.402;6.276;2022-08-23T22:50:00;20.7;;;12.9;;
67344;SDS011;54230;52.402;6.276;2022-08-23T22:55:00;17.2;;;12.3;;
67344;SDS011;54230;52.402;6.276;2022-08-23T23:00:00;22.7;;;13.0;;
67344;SDS011;54230;52.402;6.276;2022-08-23T23:05:00;20.8;;;14.2;;
67344;SDS011;54230;52.402;6.276;2022-08-23T23:10:00;21.3;;;13.7;;
67344;SDS011;54230;52.402;6.276;2022-08-23T23:15:00;20.4;;;14.1;;
67344;SDS011;54230;52.402;6.276;2022-08-23T23:20:00;20.6;;;13.8;;
67344;SDS011;54230;52.402;6.276;2022-08-23T23:25:00;20.0;;;13.2;;
67344;SDS011;54230;52.402;6.276;2022-08-23T23:30:00;19.8;;;12.5;;
67344;SDS011;54230;52.402;6.276;2022-08-23T23:35:00;19.7;;;13.7;;
67344;SDS011;54230;52.402;6.276;2022-08-23T23:40:00;20.1;;;13.4;;
67344;SDS011;54230;52.402;6.276;2022-08-23T23:45:00;19.5;;;12.7;;
67344;SDS011;54230;52.402;6.276;2022-08-23T23:50:00;18.8;;;13.1;;
67344;SDS011;54230;52.402;6.276;2022-08-23T23:55:00;20.4;;;13.5;;
